sensor_id;sensor_type;location;lat;lon;timestamp;pressure;altitude;pressure_sealevel;temperature;humidity
63691;BME280;49837;57.280;27.070;2022-12-17T00:00:16;100831.36;;;-9.43;94.94
63691;BME280;49837;57.280;27.070;2022-12-17T00:01:18;100827.98;;;-9.39;94.98
63691;BME280;49837;57.280;27.070;2022-12-17T00:02:18;100824.57;;;-9.38;94.86
63691;BME280;49837;57.280;27.070;2022-12-17T00:03:19;100828.03;;;-9.46;94.92
63691;BME280;49837;57.280;27.070;2022-12-17T00:04:19;100830.52;;;-9.36;95.02
63691;BME280;49837;57.280;27.070;2022-12-17T00:05:19;100826.63;;;-9.36;95.0
63691;BME280;49837;57.280;27.070;2022-12-17T00:06:20;100830.6;;;-9.36;94.94
63691;BME280;49837;57.280;27.070;2022-12-17T00:07:20;100832.91;;;-9.34;94.85
63691;BME280;49837;57.280;27.070;2022-12-17T00:08:20;100831.06;;;-9.4;94.74
63691;BME280;49837;57.280;27.070;2022-12-17T00:09:21;100830.39;;;-9.39;94.83
63691;BME280;49837;57.280;27.070;2022-12-17T00:10:21;100828.37;;;-9.33;94.93
63691;BME280;49837;57.280;27.070;2022-12-17T00:11:22;100831.38;;;-9.31;94.83
63691;BME280;49837;57.280;27.070;2022-12-17T00:12:22;100833.84;;;-9.32;94.73
63691;BME280;49837;57.280;27.070;2022-12-17T00:13:22;100831.13;;;-9.35;94.62
63691;BME280;49837;57.280;27.070;2022-12-17T00:14:23;100833.91;;;-9.36;94.77
63691;BME280;49837;57.280;27.070;2022-12-17T00:15:23;100832.0;;;-9.34;94.79
63691;BME280;49837;57.280;27.070;2022-12-17T00:16:24;100833.47;;;-9.45;94.81
63691;BME280;49837;57.280;27.070;2022-12-17T00:17:24;100829.64;;;-9.48;94.88
63691;BME280;49837;57.280;27.070;2022-12-17T00:18:25;100828.91;;;-9.46;95.0
63691;BME280;49837;57.280;27.070;2022-12-17T00:19:25;100832.83;;;-9.45;94.97
63691;BME280;49837;57.280;27.070;2022-12-17T00:20:25;100837.64;;;-9.48;94.89
63691;BME280;49837;57.280;27.070;2022-12-17T00:21:26;100835.23;;;-9.43;94.86
63691;BME280;49837;57.280;27.070;2022-12-17T00:22:26;100837.23;;;-9.43;94.8
63691;BME280;49837;57.280;27.070;2022-12-17T00:23:27;100835.38;;;-9.44;94.63
63691;BME280;49837;57.280;27.070;2022-12-17T00:24:27;100836.23;;;-9.46;94.59
63691;BME280;49837;57.280;27.070;2022-12-17T00:25:28;100836.2;;;-9.43;94.55
63691;BME280;49837;57.280;27.070;2022-12-17T00:26:28;100843.75;;;-9.56;94.57
63691;BME280;49837;57.280;27.070;2022-12-17T00:27:29;100836.05;;;-9.65;94.75
63691;BME280;49837;57.280;27.070;2022-12-17T00:28:29;100841.06;;;-9.62;94.92
63691;BME280;49837;57.280;27.070;2022-12-17T00:29:29;100841.59;;;-9.64;95.0
63691;BME280;49837;57.280;27.070;2022-12-17T00:30:30;100839.0;;;-9.56;95.06
63691;BME280;49837;57.280;27.070;2022-12-17T00:31:30;100840.41;;;-9.56;95.09
63691;BME280;49837;57.280;27.070;2022-12-17T00:32:31;100843.08;;;-9.54;95.11
63691;BME280;49837;57.280;27.070;2022-12-17T00:33:31;100833.09;;;-9.52;95.13
63691;BME280;49837;57.280;27.070;2022-12-17T00:34:32;100838.09;;;-9.5;95.12
63691;BME280;49837;57.280;27.070;2022-12-17T00:35:32;100834.79;;;-9.58;95.03
63691;BME280;49837;57.280;27.070;2022-12-17T00:36:33;100836.94;;;-9.64;95.0
63691;BME280;49837;57.280;27.070;2022-12-17T00:37:33;100838.77;;;-9.64;95.09
63691;BME280;49837;57.280;27.070;2022-12-17T00:38:34;100841.66;;;-9.57;95.2
63691;BME280;49837;57.280;27.070;2022-12-17T00:39:34;100842.84;;;-9.62;95.04
63691;BME280;49837;57.280;27.070;2022-12-17T00:40:34;100843.34;;;-9.63;94.99
63691;BME280;49837;57.280;27.070;2022-12-17T00:41:35;100841.93;;;-9.65;94.93
63691;BME280;49837;57.280;27.070;2022-12-17T00:42:35;100845.22;;;-9.59;95.0
63691;BME280;49837;57.280;27.070;2022-12-17T00:43:36;100847.27;;;-9.54;95.15
63691;BME280;49837;57.280;27.070;2022-12-17T00:44:36;100849.38;;;-9.54;95.12
63691;BME280;49837;57.280;27.070;2022-12-17T00:45:37;100848.48;;;-9.47;95.12
63691;BME280;49837;57.280;27.070;2022-12-17T00:46:37;100845.75;;;-9.46;94.96
63691;BME280;49837;57.280;27.070;2022-12-17T00:47:38;100842.71;;;-9.47;94.88
63691;BME280;49837;57.280;27.070;2022-12-17T00:48:39;100843.63;;;-9.54;94.82
63691;BME280;49837;57.280;27.070;2022-12-17T00:49:39;100847.12;;;-9.57;94.82
63691;BME280;49837;57.280;27.070;2022-12-17T00:50:39;100846.28;;;-9.53;94.93
63691;BME280;49837;57.280;27.070;2022-12-17T00:51:39;100847.49;;;-9.57;94.95
63691;BME280;49837;57.280;27.070;2022-12-17T00:52:40;100848.2;;;-9.58;94.88
63691;BME280;49837;57.280;27.070;2022-12-17T00:53:40;100850.75;;;-9.54;94.96
63691;BME280;49837;57.280;27.070;2022-12-17T00:54:41;100846.34;;;-9.48;94.89
63691;BME280;49837;57.280;27.070;2022-12-17T00:55:41;100843.34;;;-9.52;94.75
63691;BME280;49837;57.280;27.070;2022-12-17T00:56:42;100846.42;;;-9.52;94.74
63691;BME280;49837;57.280;27.070;2022-12-17T00:57:42;100845.8;;;-9.49;94.79
63691;BME280;49837;57.280;27.070;2022-12-17T00:58:42;100846.11;;;-9.47;94.74
63691;BME280;49837;57.280;27.070;2022-12-17T00:59:43;100844.73;;;-9.52;94.73
63691;BME280;49837;57.280;27.070;2022-12-17T01:00:43;100844.08;;;-9.56;94.75
63691;BME280;49837;57.280;27.070;2022-12-17T01:01:44;100848.09;;;-9.55;94.84
63691;BME280;49837;57.280;27.070;2022-12-17T01:02:44;100845.42;;;-9.55;94.93
63691;BME280;49837;57.280;27.070;2022-12-17T01:03:45;100846.16;;;-9.51;94.94
63691;BME280;49837;57.280;27.070;2022-12-17T01:04:45;100846.27;;;-9.52;94.92
63691;BME280;49837;57.280;27.070;2022-12-17T01:05:46;100849.45;;;-9.56;94.81
63691;BME280;49837;57.280;27.070;2022-12-17T01:06:46;100848.1;;;-9.5;94.76
63691;BME280;49837;57.280;27.070;2022-12-17T01:07:47;100850.97;;;-9.49;94.67
63691;BME280;49837;57.280;27.070;2022-12-17T01:08:47;100851.39;;;-9.47;94.62
63691;BME280;49837;57.280;27.070;2022-12-17T01:09:47;100856.86;;;-9.52;94.57
63691;BME280;49837;57.280;27.070;2022-12-17T01:10:48;100853.23;;;-9.54;94.64
63691;BME280;49837;57.280;27.070;2022-12-17T01:11:48;100856.81;;;-9.55;94.7
63691;BME280;49837;57.280;27.070;2022-12-17T01:12:49;100860.04;;;-9.55;94.62
63691;BME280;49837;57.280;27.070;2022-12-17T01:13:50;100862.62;;;-9.55;94.7
63691;BME280;49837;57.280;27.070;2022-12-17T01:14:50;100863.67;;;-9.49;94.68
63691;BME280;49837;57.280;27.070;2022-12-17T01:15:50;100865.42;;;-9.53;94.6
63691;BME280;49837;57.280;27.070;2022-12-17T01:16:50;100866.11;;;-9.51;94.63
63691;BME280;49837;57.280;27.070;2022-12-17T01:17:51;100866.23;;;-9.53;94.49
63691;BME280;49837;57.280;27.070;2022-12-17T01:18:52;100863.57;;;-9.6;94.48
63691;BME280;49837;57.280;27.070;2022-12-17T01:19:52;100864.92;;;-9.63;94.59
63691;BME280;49837;57.280;27.070;2022-12-17T01:20:56;100862.45;;;-9.61;94.71
63691;BME280;49837;57.280;27.070;2022-12-17T01:21:53;100855.36;;;-9.55;94.83
63691;BME280;49837;57.280;27.070;2022-12-17T01:22:54;100856.97;;;-9.54;94.91
63691;BME280;49837;57.280;27.070;2022-12-17T01:23:54;100853.79;;;-9.52;95.04
63691;BME280;49837;57.280;27.070;2022-12-17T01:24:55;100854.89;;;-9.56;95.0
63691;BME280;49837;57.280;27.070;2022-12-17T01:25:56;100858.75;;;-9.5;94.98
63691;BME280;49837;57.280;27.070;2022-12-17T01:26:55;100858.62;;;-9.53;94.92
63691;BME280;49837;57.280;27.070;2022-12-17T01:27:56;100855.7;;;-9.55;94.99
63691;BME280;49837;57.280;27.070;2022-12-17T01:28:57;100862.77;;;-9.54;95.04
63691;BME280;49837;57.280;27.070;2022-12-17T01:29:57;100859.62;;;-9.49;94.95
63691;BME280;49837;57.280;27.070;2022-12-17T01:30:57;100858.48;;;-9.53;94.77
63691;BME280;49837;57.280;27.070;2022-12-17T01:31:58;100865.68;;;-9.58;94.82
63691;BME280;49837;57.280;27.070;2022-12-17T01:34:02;100868.55;;;-9.58;95.13
63691;BME280;49837;57.280;27.070;2022-12-17T01:35:03;100867.2;;;-9.57;95.07
63691;BME280;49837;57.280;27.070;2022-12-17T01:36:03;100867.46;;;-9.54;95.0
63691;BME280;49837;57.280;27.070;2022-12-17T01:37:03;100867.88;;;-9.55;95.02
63691;BME280;49837;57.280;27.070;2022-12-17T01:39:06;100862.15;;;-9.62;95.15
63691;BME280;49837;57.280;27.070;2022-12-17T01:40:08;100859.86;;;-9.54;95.13
63691;BME280;49837;57.280;27.070;2022-12-17T01:41:08;100858.79;;;-9.53;95.06
63691;BME280;49837;57.280;27.070;2022-12-17T01:42:11;100860.58;;;-9.52;94.96
63691;BME280;49837;57.280;27.070;2022-12-17T01:43:11;100854.39;;;-9.51;94.88
63691;BME280;49837;57.280;27.070;2022-12-17T01:45:14;100858.2;;;-9.52;94.74
63691;BME280;49837;57.280;27.070;2022-12-17T01:46:15;100864.41;;;-9.51;94.81
63691;BME280;49837;57.280;27.070;2022-12-17T01:47:16;100861.38;;;-9.46;94.8
63691;BME280;49837;57.280;27.070;2022-12-17T01:48:16;100863.34;;;-9.49;94.64
63691;BME280;49837;57.280;27.070;2022-12-17T01:49:17;100862.59;;;-9.46;94.6
63691;BME280;49837;57.280;27.070;2022-12-17T01:50:17;100865.03;;;-9.44;94.46
63691;BME280;49837;57.280;27.070;2022-12-17T01:51:17;100862.53;;;-9.54;94.39
63691;BME280;49837;57.280;27.070;2022-12-17T01:52:17;100861.58;;;-9.55;94.53
63691;BME280;49837;57.280;27.070;2022-12-17T01:53:22;100864.98;;;-9.58;94.64
63691;BME280;49837;57.280;27.070;2022-12-17T01:54:21;100864.73;;;-9.57;94.71
63691;BME280;49837;57.280;27.070;2022-12-17T01:55:21;100864.38;;;-9.54;94.66
63691;BME280;49837;57.280;27.070;2022-12-17T01:56:21;100866.52;;;-9.5;94.6
63691;BME280;49837;57.280;27.070;2022-12-17T01:57:22;100867.71;;;-9.49;94.46
63691;BME280;49837;57.280;27.070;2022-12-17T01:58:22;100863.33;;;-9.49;94.44
63691;BME280;49837;57.280;27.070;2022-12-17T02:00:26;100862.5;;;-9.63;94.38
63691;BME280;49837;57.280;27.070;2022-12-17T02:01:26;100861.58;;;-9.59;94.44
63691;BME280;49837;57.280;27.070;2022-12-17T02:02:26;100855.91;;;-9.65;94.38
63691;BME280;49837;57.280;27.070;2022-12-17T02:03:27;100857.12;;;-9.71;94.58
63691;BME280;49837;57.280;27.070;2022-12-17T02:04:27;100854.31;;;-9.74;94.76
63691;BME280;49837;57.280;27.070;2022-12-17T02:06:33;100854.61;;;-9.92;95.18
63691;BME280;49837;57.280;27.070;2022-12-17T02:07:57;100854.97;;;-9.83;95.34
63691;BME280;49837;57.280;27.070;2022-12-17T02:11:51;100858.18;;;-9.97;95.41
63691;BME280;49837;57.280;27.070;2022-12-17T02:12:50;100857.23;;;-9.96;95.41
63691;BME280;49837;57.280;27.070;2022-12-17T02:15:17;100855.41;;;-9.8;95.49
63691;BME280;49837;57.280;27.070;2022-12-17T02:17:01;100859.36;;;-9.82;95.05
63691;BME280;49837;57.280;27.070;2022-12-17T02:18:04;100860.77;;;-9.85;95.17
63691;BME280;49837;57.280;27.070;2022-12-17T02:21:14;100854.25;;;-9.9;95.28
63691;BME280;49837;57.280;27.070;2022-12-17T02:27:29;100851.91;;;-9.83;95.34
63691;BME280;49837;57.280;27.070;2022-12-17T02:28:28;100846.14;;;-9.83;95.3
63691;BME280;49837;57.280;27.070;2022-12-17T02:29:34;100847.67;;;-9.81;95.2
63691;BME280;49837;57.280;27.070;2022-12-17T02:30:33;100848.75;;;-9.73;95.17
63691;BME280;49837;57.280;27.070;2022-12-17T02:31:34;100849.56;;;-9.73;94.98
63691;BME280;49837;57.280;27.070;2022-12-17T02:32:36;100846.33;;;-9.8;94.87
63691;BME280;49837;57.280;27.070;2022-12-17T02:33:35;100845.57;;;-9.75;94.92
63691;BME280;49837;57.280;27.070;2022-12-17T02:34:47;100843.04;;;-9.81;94.81
63691;BME280;49837;57.280;27.070;2022-12-17T02:35:50;100843.02;;;-9.89;94.82
63691;BME280;49837;57.280;27.070;2022-12-17T02:36:44;100840.87;;;-9.86;95.02
63691;BME280;49837;57.280;27.070;2022-12-17T02:37:46;100841.09;;;-9.86;95.14
63691;BME280;49837;57.280;27.070;2022-12-17T02:38:45;100840.59;;;-9.83;95.12
63691;BME280;49837;57.280;27.070;2022-12-17T02:39:46;100838.31;;;-9.88;95.1
63691;BME280;49837;57.280;27.070;2022-12-17T02:40:47;100839.3;;;-9.85;95.12
63691;BME280;49837;57.280;27.070;2022-12-17T02:41:49;100837.73;;;-9.82;95.09
63691;BME280;49837;57.280;27.070;2022-12-17T02:42:48;100835.76;;;-9.83;95.02
63691;BME280;49837;57.280;27.070;2022-12-17T02:43:49;100838.91;;;-9.78;94.94
63691;BME280;49837;57.280;27.070;2022-12-17T02:44:49;100840.16;;;-9.75;94.91
63691;BME280;49837;57.280;27.070;2022-12-17T02:45:52;100839.93;;;-9.83;94.9
63691;BME280;49837;57.280;27.070;2022-12-17T02:46:51;100842.83;;;-9.87;94.87
63691;BME280;49837;57.280;27.070;2022-12-17T02:47:51;100843.98;;;-9.95;94.91
63691;BME280;49837;57.280;27.070;2022-12-17T02:48:51;100848.82;;;-9.9;95.01
63691;BME280;49837;57.280;27.070;2022-12-17T02:49:51;100844.55;;;-9.97;95.0
63691;BME280;49837;57.280;27.070;2022-12-17T02:50:52;100842.68;;;-9.96;95.09
63691;BME280;49837;57.280;27.070;2022-12-17T02:51:53;100841.71;;;-9.96;95.2
63691;BME280;49837;57.280;27.070;2022-12-17T02:52:53;100840.87;;;-9.92;95.25
63691;BME280;49837;57.280;27.070;2022-12-17T02:53:53;100844.36;;;-9.95;95.23
63691;BME280;49837;57.280;27.070;2022-12-17T02:54:54;100842.16;;;-9.94;95.3
63691;BME280;49837;57.280;27.070;2022-12-17T02:55:54;100842.48;;;-10.0;95.25
63691;BME280;49837;57.280;27.070;2022-12-17T02:56:55;100835.61;;;-10.04;95.38
63691;BME280;49837;57.280;27.070;2022-12-17T02:57:55;100836.37;;;-10.05;95.41
63691;BME280;49837;57.280;27.070;2022-12-17T02:58:56;100838.33;;;-10.0;95.46
63691;BME280;49837;57.280;27.070;2022-12-17T02:59:56;100836.2;;;-9.95;95.4
63691;BME280;49837;57.280;27.070;2022-12-17T03:00:56;100836.45;;;-10.01;95.36
63691;BME280;49837;57.280;27.070;2022-12-17T03:01:57;100834.31;;;-9.96;95.35
63691;BME280;49837;57.280;27.070;2022-12-17T03:02:57;100839.09;;;-9.97;95.33
63691;BME280;49837;57.280;27.070;2022-12-17T03:03:58;100839.45;;;-10.02;95.33
63691;BME280;49837;57.280;27.070;2022-12-17T03:04:58;100836.97;;;-10.04;95.29
63691;BME280;49837;57.280;27.070;2022-12-17T03:06:01;100837.19;;;-10.01;95.32
63691;BME280;49837;57.280;27.070;2022-12-17T03:07:01;100835.32;;;-10.01;95.36
63691;BME280;49837;57.280;27.070;2022-12-17T03:08:01;100833.48;;;-10.02;95.39
63691;BME280;49837;57.280;27.070;2022-12-17T03:09:02;100833.11;;;-10.04;95.35
63691;BME280;49837;57.280;27.070;2022-12-17T03:10:03;100837.45;;;-9.97;95.38
63691;BME280;49837;57.280;27.070;2022-12-17T03:11:03;100835.82;;;-10.01;95.23
63691;BME280;49837;57.280;27.070;2022-12-17T03:12:04;100833.2;;;-10.09;95.15
63691;BME280;49837;57.280;27.070;2022-12-17T03:13:04;100837.77;;;-10.08;95.3
63691;BME280;49837;57.280;27.070;2022-12-17T03:14:04;100845.22;;;-10.1;95.35
63691;BME280;49837;57.280;27.070;2022-12-17T03:15:05;100842.11;;;-10.13;95.42
63691;BME280;49837;57.280;27.070;2022-12-17T03:16:09;100845.14;;;-10.05;95.51
63691;BME280;49837;57.280;27.070;2022-12-17T03:17:07;100843.7;;;-10.05;95.4
63691;BME280;49837;57.280;27.070;2022-12-17T03:18:07;100846.3;;;-10.06;95.35
63691;BME280;49837;57.280;27.070;2022-12-17T03:19:09;100844.27;;;-10.06;95.32
63691;BME280;49837;57.280;27.070;2022-12-17T03:20:09;100847.98;;;-10.12;95.29
63691;BME280;49837;57.280;27.070;2022-12-17T03:21:09;100842.12;;;-10.19;95.34
63691;BME280;49837;57.280;27.070;2022-12-17T03:22:10;100841.48;;;-10.27;95.43
63691;BME280;49837;57.280;27.070;2022-12-17T03:23:10;100839.78;;;-10.29;95.58
63691;BME280;49837;57.280;27.070;2022-12-17T03:24:10;100842.52;;;-10.25;95.76
63691;BME280;49837;57.280;27.070;2022-12-17T03:25:11;100839.99;;;-10.13;95.76
63691;BME280;49837;57.280;27.070;2022-12-17T03:26:11;100835.61;;;-10.05;95.67
63691;BME280;49837;57.280;27.070;2022-12-17T03:27:12;100834.15;;;-10.09;95.6
63691;BME280;49837;57.280;27.070;2022-12-17T03:28:12;100834.36;;;-10.11;95.57
63691;BME280;49837;57.280;27.070;2022-12-17T03:29:13;100838.06;;;-10.0;95.5
63691;BME280;49837;57.280;27.070;2022-12-17T03:30:13;100833.17;;;-10.08;95.39
63691;BME280;49837;57.280;27.070;2022-12-17T03:31:13;100837.31;;;-10.18;95.42
63691;BME280;49837;57.280;27.070;2022-12-17T03:32:14;100831.34;;;-10.29;95.56
63691;BME280;49837;57.280;27.070;2022-12-17T03:33:15;100835.31;;;-10.32;95.73
63691;BME280;49837;57.280;27.070;2022-12-17T03:34:15;100835.98;;;-10.31;95.89
63691;BME280;49837;57.280;27.070;2022-12-17T03:35:15;100839.39;;;-10.28;95.96
63691;BME280;49837;57.280;27.070;2022-12-17T03:36:16;100830.42;;;-10.21;95.96
63691;BME280;49837;57.280;27.070;2022-12-17T03:37:16;100839.49;;;-10.17;95.89
63691;BME280;49837;57.280;27.070;2022-12-17T03:38:17;100836.08;;;-10.08;95.81
63691;BME280;49837;57.280;27.070;2022-12-17T03:39:17;100839.61;;;-10.15;95.69
63691;BME280;49837;57.280;27.070;2022-12-17T03:40:18;100843.9;;;-10.16;95.73
63691;BME280;49837;57.280;27.070;2022-12-17T03:41:18;100845.38;;;-10.18;95.66
63691;BME280;49837;57.280;27.070;2022-12-17T03:42:18;100845.61;;;-10.22;95.69
63691;BME280;49837;57.280;27.070;2022-12-17T03:43:19;100850.33;;;-10.19;95.76
63691;BME280;49837;57.280;27.070;2022-12-17T03:44:19;100847.13;;;-10.21;95.77
63691;BME280;49837;57.280;27.070;2022-12-17T03:45:20;100846.94;;;-10.17;95.65
63691;BME280;49837;57.280;27.070;2022-12-17T03:46:20;100847.38;;;-10.09;95.57
63691;BME280;49837;57.280;27.070;2022-12-17T03:47:21;100843.09;;;-10.1;95.51
63691;BME280;49837;57.280;27.070;2022-12-17T03:48:21;100848.52;;;-10.11;95.4
63691;BME280;49837;57.280;27.070;2022-12-17T03:49:22;100844.49;;;-10.09;95.38
63691;BME280;49837;57.280;27.070;2022-12-17T03:50:22;100841.5;;;-10.08;95.34
63691;BME280;49837;57.280;27.070;2022-12-17T03:51:23;100839.88;;;-10.08;95.18
63691;BME280;49837;57.280;27.070;2022-12-17T03:52:23;100838.95;;;-10.12;95.13
63691;BME280;49837;57.280;27.070;2022-12-17T03:53:23;100842.89;;;-10.11;95.28
63691;BME280;49837;57.280;27.070;2022-12-17T03:54:24;100835.91;;;-10.15;95.29
63691;BME280;49837;57.280;27.070;2022-12-17T03:55:24;100841.38;;;-10.2;95.36
63691;BME280;49837;57.280;27.070;2022-12-17T03:56:25;100841.12;;;-10.33;95.45
63691;BME280;49837;57.280;27.070;2022-12-17T03:57:25;100838.78;;;-10.37;95.64
63691;BME280;49837;57.280;27.070;2022-12-17T03:58:26;100840.94;;;-10.31;95.74
63691;BME280;49837;57.280;27.070;2022-12-17T03:59:26;100838.2;;;-10.29;95.8
63691;BME280;49837;57.280;27.070;2022-12-17T04:00:27;100838.4;;;-10.31;95.76
63691;BME280;49837;57.280;27.070;2022-12-17T04:01:27;100838.77;;;-10.32;95.87
63691;BME280;49837;57.280;27.070;2022-12-17T04:02:28;100837.05;;;-10.35;95.94
63691;BME280;49837;57.280;27.070;2022-12-17T04:03:28;100838.16;;;-10.38;95.96
63691;BME280;49837;57.280;27.070;2022-12-17T04:04:29;100835.0;;;-10.36;96.03
63691;BME280;49837;57.280;27.070;2022-12-17T04:05:29;100835.2;;;-10.3;95.94
63691;BME280;49837;57.280;27.070;2022-12-17T04:06:29;100834.1;;;-10.37;95.84
63691;BME280;49837;57.280;27.070;2022-12-17T04:07:30;100839.91;;;-10.42;95.83
63691;BME280;49837;57.280;27.070;2022-12-17T04:08:30;100843.5;;;-10.45;95.94
63691;BME280;49837;57.280;27.070;2022-12-17T04:09:31;100843.16;;;-10.38;95.96
63691;BME280;49837;57.280;27.070;2022-12-17T04:10:31;100842.31;;;-10.37;95.97
63691;BME280;49837;57.280;27.070;2022-12-17T04:11:32;100836.56;;;-10.27;95.86
63691;BME280;49837;57.280;27.070;2022-12-17T04:12:32;100840.42;;;-10.32;95.63
63691;BME280;49837;57.280;27.070;2022-12-17T04:13:33;100837.86;;;-10.36;95.57
63691;BME280;49837;57.280;27.070;2022-12-17T04:14:36;100834.64;;;-10.34;95.61
63691;BME280;49837;57.280;27.070;2022-12-17T04:15:37;100832.44;;;-10.25;95.61
63691;BME280;49837;57.280;27.070;2022-12-17T04:16:38;100833.97;;;-10.27;95.55
63691;BME280;49837;57.280;27.070;2022-12-17T04:17:38;100831.89;;;-10.28;95.54
63691;BME280;49837;57.280;27.070;2022-12-17T04:18:38;100841.48;;;-10.21;95.43
63691;BME280;49837;57.280;27.070;2022-12-17T04:19:39;100830.39;;;-10.27;95.27
63691;BME280;49837;57.280;27.070;2022-12-17T04:20:39;100835.11;;;-10.33;95.28
63691;BME280;49837;57.280;27.070;2022-12-17T04:21:40;100838.8;;;-10.42;95.24
63691;BME280;49837;57.280;27.070;2022-12-17T04:22:40;100837.48;;;-10.47;95.38
63691;BME280;49837;57.280;27.070;2022-12-17T04:23:41;100840.16;;;-10.51;95.52
63691;BME280;49837;57.280;27.070;2022-12-17T04:24:41;100841.5;;;-10.55;95.66
63691;BME280;49837;57.280;27.070;2022-12-17T04:25:42;100842.73;;;-10.57;95.81
63691;BME280;49837;57.280;27.070;2022-12-17T04:26:42;100841.17;;;-10.6;95.88
63691;BME280;49837;57.280;27.070;2022-12-17T04:27:43;100844.34;;;-10.65;95.95
63691;BME280;49837;57.280;27.070;2022-12-17T04:28:43;100849.45;;;-10.66;96.1
63691;BME280;49837;57.280;27.070;2022-12-17T04:29:43;100842.26;;;-10.63;96.16
63691;BME280;49837;57.280;27.070;2022-12-17T04:30:44;100844.78;;;-10.51;96.21
63691;BME280;49837;57.280;27.070;2022-12-17T04:31:44;100844.84;;;-10.49;96.07
63691;BME280;49837;57.280;27.070;2022-12-17T04:32:45;100849.89;;;-10.47;96.02
63691;BME280;49837;57.280;27.070;2022-12-17T04:33:45;100842.31;;;-10.4;95.82
63691;BME280;49837;57.280;27.070;2022-12-17T04:34:46;100845.51;;;-10.45;95.68
63691;BME280;49837;57.280;27.070;2022-12-17T04:35:46;100845.37;;;-10.41;95.74
63691;BME280;49837;57.280;27.070;2022-12-17T04:36:47;100839.88;;;-10.4;95.66
63691;BME280;49837;57.280;27.070;2022-12-17T04:37:47;100839.2;;;-10.38;95.65
63691;BME280;49837;57.280;27.070;2022-12-17T04:38:48;100844.31;;;-10.35;95.6
63691;BME280;49837;57.280;27.070;2022-12-17T04:39:48;100845.76;;;-10.35;95.47
63691;BME280;49837;57.280;27.070;2022-12-17T04:40:48;100842.3;;;-10.36;95.42
63691;BME280;49837;57.280;27.070;2022-12-17T04:41:49;100848.19;;;-10.36;95.3
63691;BME280;49837;57.280;27.070;2022-12-17T04:42:49;100846.88;;;-10.39;95.29
63691;BME280;49837;57.280;27.070;2022-12-17T04:43:50;100850.91;;;-10.38;95.3
63691;BME280;49837;57.280;27.070;2022-12-17T04:44:50;100847.12;;;-10.34;95.42
63691;BME280;49837;57.280;27.070;2022-12-17T04:45:51;100847.48;;;-10.29;95.43
63691;BME280;49837;57.280;27.070;2022-12-17T04:46:52;100848.11;;;-10.28;95.38
63691;BME280;49837;57.280;27.070;2022-12-17T04:48:58;100854.16;;;-10.3;95.25
63691;BME280;49837;57.280;27.070;2022-12-17T04:49:58;100853.92;;;-10.28;95.27
63691;BME280;49837;57.280;27.070;2022-12-17T04:50:59;100858.02;;;-10.27;95.23
63691;BME280;49837;57.280;27.070;2022-12-17T04:51:59;100855.04;;;-10.3;95.15
63691;BME280;49837;57.280;27.070;2022-12-17T04:53:01;100856.7;;;-10.31;95.17
63691;BME280;49837;57.280;27.070;2022-12-17T04:54:00;100856.84;;;-10.32;95.24
63691;BME280;49837;57.280;27.070;2022-12-17T04:55:01;100856.52;;;-10.31;95.33
63691;BME280;49837;57.280;27.070;2022-12-17T04:56:01;100852.78;;;-10.3;95.21
63691;BME280;49837;57.280;27.070;2022-12-17T04:57:01;100856.44;;;-10.3;95.24
63691;BME280;49837;57.280;27.070;2022-12-17T04:58:03;100857.58;;;-10.32;95.12
63691;BME280;49837;57.280;27.070;2022-12-17T04:59:02;100857.2;;;-10.27;95.16
63691;BME280;49837;57.280;27.070;2022-12-17T05:00:03;100858.22;;;-10.23;95.13
63691;BME280;49837;57.280;27.070;2022-12-17T05:01:03;100858.3;;;-10.23;95.08
63691;BME280;49837;57.280;27.070;2022-12-17T05:02:04;100863.84;;;-10.23;95.08
63691;BME280;49837;57.280;27.070;2022-12-17T05:03:05;100863.31;;;-10.3;95.0
63691;BME280;49837;57.280;27.070;2022-12-17T05:04:05;100861.17;;;-10.3;95.05
63691;BME280;49837;57.280;27.070;2022-12-17T05:05:06;100868.82;;;-10.32;94.99
63691;BME280;49837;57.280;27.070;2022-12-17T05:06:07;100867.23;;;-10.37;94.98
63691;BME280;49837;57.280;27.070;2022-12-17T05:07:06;100865.25;;;-10.43;95.11
63691;BME280;49837;57.280;27.070;2022-12-17T05:08:07;100863.25;;;-10.39;95.2
63691;BME280;49837;57.280;27.070;2022-12-17T05:09:07;100862.0;;;-10.4;95.26
63691;BME280;49837;57.280;27.070;2022-12-17T05:10:08;100856.98;;;-10.33;95.32
63691;BME280;49837;57.280;27.070;2022-12-17T05:11:08;100866.12;;;-10.32;95.3
63691;BME280;49837;57.280;27.070;2022-12-17T05:12:08;100865.8;;;-10.3;95.27
63691;BME280;49837;57.280;27.070;2022-12-17T05:13:09;100865.88;;;-10.35;95.21
63691;BME280;49837;57.280;27.070;2022-12-17T05:14:09;100868.95;;;-10.42;95.26
63691;BME280;49837;57.280;27.070;2022-12-17T05:15:10;100870.36;;;-10.45;95.37
63691;BME280;49837;57.280;27.070;2022-12-17T05:16:11;100871.38;;;-10.42;95.45
63691;BME280;49837;57.280;27.070;2022-12-17T05:17:11;100870.18;;;-10.38;95.5
63691;BME280;49837;57.280;27.070;2022-12-17T05:18:11;100867.54;;;-10.46;95.5
63691;BME280;49837;57.280;27.070;2022-12-17T05:19:12;100868.38;;;-10.5;95.63
63691;BME280;49837;57.280;27.070;2022-12-17T05:20:12;100868.05;;;-10.47;95.75
63691;BME280;49837;57.280;27.070;2022-12-17T05:21:13;100868.16;;;-10.46;95.79
63691;BME280;49837;57.280;27.070;2022-12-17T05:22:13;100868.67;;;-10.39;95.82
63691;BME280;49837;57.280;27.070;2022-12-17T05:23:13;100866.82;;;-10.46;95.74
63691;BME280;49837;57.280;27.070;2022-12-17T05:24:14;100870.35;;;-10.53;95.77
63691;BME280;49837;57.280;27.070;2022-12-17T05:25:15;100867.77;;;-10.58;95.87
63691;BME280;49837;57.280;27.070;2022-12-17T05:26:23;100869.73;;;-10.63;95.98
63691;BME280;49837;57.280;27.070;2022-12-17T05:27:15;100866.7;;;-10.61;96.09
63691;BME280;49837;57.280;27.070;2022-12-17T05:28:16;100868.19;;;-10.55;96.12
63691;BME280;49837;57.280;27.070;2022-12-17T05:29:17;100876.91;;;-10.42;96.14
63691;BME280;49837;57.280;27.070;2022-12-17T05:30:17;100874.59;;;-10.47;96.02